CYAZ/YAZ METAR and TAF weather

Enter ICAO airport designator
Station Type Date Time Source
CYAZ METAR 2019/06/17 13:26 UTC NOAA

CYAZ 171326Z 31003KT 1SM BR OVC002 11/10 A3011 RMK FG4ST4 SLP199


Station Type Date Time Source
CYAZ Decoded METAR 2019/06/17 13:26 UTC NOAA

Tofino Airport, Canada (CYAZ) 49-05N 125-46W
Jun 17, 2019 - 09:26 AM EDT / 2019.06.17 1326 UTC
Wind: from the NW (310 degrees) at 3 MPH (3 KT):0
Visibility: 1 mile(s):0
Sky conditions: overcast
Weather: mist
Temperature: 51 F (11 C)
Dew Point: 50 F (10 C)
Relative Humidity: 93%
Pressure (altimeter): 30.11 in. Hg (1019 hPa)
ob: CYAZ 171326Z 31003KT 1SM BR OVC002 11/10 A3011 RMK FG4ST4 SLP199
cycle: 13

Station Type Date Time Source
CYAZ TAF 2019/06/16 23:18 UTC NOAA

TAF
AMD TAF
AMD CYAZ 162315Z 1623/1701 28012KT P6SM BKN008
TEMPO 1623/1701 BKN005
RMK NXT FCST WILL BE ISSUED AT 171445Z

Example: see airport list